Riverton, WY

5:25 PM MST on December 28, 2014 (GMT -0700)
Logan Park | Change Station
CLOSE
Current Station
Personal Weather Station
Location: Riverton, WY
Elevation: 4984 ft
Nearby Weather Stations
Active Advisory: Winter Weather Advisory Active Notice: Public Information Statement

Elev 4984 ft 43.04 °N, 108.39 °W | Updated 4 seconds ago

Overcast
Overcast
16.0 °F
Feels Like 16 °F
N
0.0
Wind Variable Wind from ESE
Gusts 0.0 mph

Today
High -- | Low -- °F
--% Chance of Precip.
Yesterday
High -- | Low -- °F
Precip. -- in
7:44 AM 4:45 PM
First Quarter, 53% visible
Pressure 29.90 in
Visibility 9.0 miles
Clouds Scattered Clouds 2800 ft
Mostly Cloudy 7500 ft
Overcast 9500 ft
Windchill 16 °F
Dew Point 11 °F
Humidity 79%
Rainfall 0.00 in
Snow Depth Not available.
UV 0 out of 12
Pollen .10 out of 12
Air Quality Not available.
Flu Activity Not available.
SPECI KRIW 290005Z AUTO 30005KT 9SM SCT028 BKN075 OVC095 M10/M13 A2990 RMK AO2 SNE01 P0000 T11001133

More Conditions Fewer Conditions

Pressure 29.90 in
Visibility 9.0 miles
Clouds Scattered Clouds 2800 ft
Mostly Cloudy 7500 ft
Overcast 9500 ft
Windchill 16 °F
Dew Point 11 °F
Humidity 79%
Rainfall 0.00 in
Snow Depth Not available.
UV 0 out of 12
Pollen .10 out of 12
Air Quality Not available.
Flu Activity Not available.
SPECI KRIW 290005Z AUTO 30005KT 9SM SCT028 BKN075 OVC095 M10/M13 A2990 RMK AO2 SNE01 P0000 T11001133

More Conditions Fewer Conditions

10-Day Weather Forecast

Almanac

Astronomy

Dec. 28, 2014 Rise Set
Actual Time
Civil Twilight
Nautical Twilight
Astronomical Twilight
Moon
Length of Visible Light
Length of Day
Tomorrow will be .
, % of the Moon is Illuminated

Today's Extremes

State Highs State Lows

Community

WunderPhotos

Upload Photos

1,781,468 photos uploaded!

WunderBlogs® & News

Nearby

Air Quality

  Air Quality AQ Index Pollutant
Not available.

Snow Depth

Station Depth Elevation

Earthquake Activity

City Distance Mag. Time & Date
Minimum magnitude displayed is 2.5.

Coastal Water Temperatures

Place Temperature

Nearby Weather Stations